createdAt,value
2023-04-24T00:00:07.071Z,2.60
2023-04-24T00:02:35.353Z,2.92
2023-04-24T00:05:03.322Z,2.35
2023-04-24T00:07:31.246Z,2.55
2023-04-24T00:09:59.017Z,2.80
2023-04-24T00:12:27.001Z,3.03
2023-04-24T00:14:54.730Z,2.22
2023-04-24T00:17:22.133Z,3.08
2023-04-24T00:19:52.254Z,2.58
2023-04-24T00:22:21.873Z,2.53
2023-04-24T00:24:49.051Z,2.60
2023-04-24T00:27:16.522Z,2.10
2023-04-24T00:29:44.035Z,2.35
2023-04-24T00:32:12.066Z,2.25
2023-04-24T00:34:39.595Z,3.15
2023-04-24T00:37:07.111Z,2.63
2023-04-24T00:39:34.661Z,2.35
2023-04-24T00:42:02.965Z,2.30
2023-04-24T00:44:30.334Z,2.95
2023-04-24T00:46:58.803Z,1.90
2023-04-24T00:49:26.368Z,2.28
2023-04-24T00:51:54.935Z,2.53
2023-04-24T00:54:22.178Z,2.55
2023-04-24T00:56:52.406Z,2.10
2023-04-24T00:59:19.910Z,2.45
2023-04-24T01:01:47.649Z,2.05
2023-04-24T01:04:17.128Z,3.33
2023-04-24T01:06:46.041Z,2.70
2023-04-24T01:09:15.627Z,2.35
2023-04-24T01:11:44.167Z,2.42
2023-04-24T01:14:13.064Z,2.17
2023-04-24T01:16:40.456Z,2.90
2023-04-24T01:19:08.391Z,2.53
2023-04-24T01:21:39.351Z,2.60
2023-04-24T01:24:07.671Z,2.67
2023-04-24T01:26:35.360Z,2.67
2023-04-24T01:29:02.804Z,2.42
2023-04-24T01:31:31.026Z,2.42
2023-04-24T01:33:58.739Z,2.40
2023-04-24T01:36:28.351Z,2.53
2023-04-24T01:38:56.034Z,2.50
2023-04-24T01:41:23.579Z,2.75
2023-04-24T01:43:52.219Z,2.13
2023-04-24T01:46:21.069Z,2.33
2023-04-24T01:48:48.513Z,2.95
2023-04-24T01:51:15.779Z,2.13
2023-04-24T01:53:43.203Z,2.88
2023-04-24T01:56:10.781Z,2.55
2023-04-24T01:58:38.110Z,2.17
2023-04-24T02:01:07.364Z,2.38
2023-04-24T02:03:34.924Z,2.55
2023-04-24T02:06:02.553Z,2.55
2023-04-24T02:08:29.812Z,2.33
2023-04-24T02:10:57.512Z,2.25
2023-04-24T02:13:25.639Z,2.42
2023-04-24T02:15:52.904Z,2.63
2023-04-24T02:18:20.910Z,2.60
2023-04-24T02:20:48.178Z,2.53
2023-04-24T02:23:15.769Z,2.58
2023-04-24T02:25:43.082Z,2.58
2023-04-24T02:28:10.319Z,2.65
2023-04-24T02:30:37.549Z,2.28
2023-04-24T02:33:04.884Z,2.33
2023-04-24T02:35:32.219Z,2.42
2023-04-24T02:37:59.498Z,2.50
2023-04-24T02:40:26.994Z,2.22
2023-04-24T02:42:54.312Z,2.50
2023-04-24T02:45:21.663Z,2.63
2023-04-24T02:47:48.902Z,2.40
2023-04-24T02:50:16.207Z,2.45
2023-04-24T02:52:43.510Z,2.58
2023-04-24T02:55:11.028Z,2.75
2023-04-24T02:57:38.226Z,2.10
2023-04-24T03:00:08.243Z,2.10
2023-04-24T03:02:35.759Z,1.80
2023-04-24T03:05:03.556Z,2.03
2023-04-24T03:07:32.134Z,2.08
2023-04-24T03:10:00.378Z,2.13
2023-04-24T03:12:27.841Z,2.45
2023-04-24T03:14:56.016Z,1.92
2023-04-24T03:17:23.236Z,2.28
2023-04-24T03:19:50.446Z,2.28
2023-04-24T03:22:18.941Z,2.30
2023-04-24T03:24:46.199Z,2.00
2023-04-24T03:27:16.755Z,2.15
2023-04-24T03:29:56.793Z,1.90
2023-04-24T03:32:33.310Z,1.85
2023-04-24T03:35:01.465Z,1.85
2023-04-24T03:37:28.826Z,2.30
2023-04-24T03:40:12.619Z,2.10
2023-04-24T03:42:40.187Z,2.13
2023-04-24T03:45:08.538Z,2.08
2023-04-24T03:47:38.353Z,2.45
2023-04-24T03:50:07.318Z,1.98
2023-04-24T03:52:35.522Z,2.10
2023-04-24T03:55:03.917Z,2.50
2023-04-24T03:57:35.031Z,2.72
2023-04-24T04:00:12.112Z,2.20
2023-04-24T04:02:42.720Z,2.25
2023-04-24T04:05:10.957Z,2.55
2023-04-24T04:07:38.185Z,2.45
2023-04-24T04:10:08.146Z,2.60
2023-04-24T04:12:37.661Z,2.00
2023-04-24T04:15:06.986Z,2.45
2023-04-24T04:17:34.614Z,2.08
2023-04-24T04:20:02.788Z,2.58
2023-04-24T04:22:30.177Z,2.70
2023-04-24T04:24:59.645Z,2.35
2023-04-24T04:27:30.099Z,2.45
2023-04-24T04:30:05.961Z,2.47
2023-04-24T04:32:41.654Z,2.42
2023-04-24T04:35:10.452Z,2.67
2023-04-24T04:37:38.017Z,2.42
2023-04-24T04:40:24.422Z,2.60
2023-04-24T04:42:59.275Z,2.85
2023-04-24T04:45:29.723Z,2.53
2023-04-24T04:48:18.537Z,2.50
2023-04-24T04:53:13.657Z,2.47
2023-04-24T04:55:41.051Z,2.53
2023-04-24T04:58:14.550Z,2.80
2023-04-24T05:00:42.594Z,2.60
2023-04-24T05:03:26.129Z,2.33
2023-04-24T05:05:59.758Z,2.45
2023-04-24T05:08:28.050Z,2.40
2023-04-24T05:10:56.551Z,2.45
2023-04-24T05:13:38.233Z,3.65
2023-04-24T05:16:11.069Z,2.63
2023-04-24T05:18:38.929Z,2.40
2023-04-24T05:21:08.006Z,2.15
2023-04-24T05:23:36.164Z,2.47
2023-04-24T05:26:05.102Z,2.55
2023-04-24T05:28:34.209Z,2.30
2023-04-24T05:31:07.572Z,2.28
2023-04-24T05:33:35.657Z,2.58
2023-04-24T05:36:03.058Z,2.47
2023-04-24T05:38:30.387Z,2.53
2023-04-24T05:40:57.763Z,2.38
2023-04-24T05:43:25.105Z,2.95
2023-04-24T05:45:52.584Z,2.42
2023-04-24T05:48:19.841Z,2.55
2023-04-24T05:50:49.015Z,2.60
2023-04-24T05:53:16.465Z,2.33
2023-04-24T05:55:43.952Z,2.28
2023-04-24T05:58:11.840Z,2.03
2023-04-24T06:00:42.488Z,2.78
2023-04-24T06:03:10.489Z,2.47
2023-04-24T06:05:37.975Z,2.70
2023-04-24T06:08:05.766Z,2.50
2023-04-24T06:10:37.036Z,2.70
2023-04-24T06:13:05.128Z,2.38
2023-04-24T06:15:34.489Z,2.55
2023-04-24T06:18:11.555Z,2.30
2023-04-24T06:20:40.620Z,2.92
2023-04-24T06:23:10.325Z,2.35
2023-04-24T06:25:38.713Z,2.33
2023-04-24T06:28:06.167Z,2.42
2023-04-24T06:30:33.393Z,2.53
2023-04-24T06:33:09.225Z,3.22
2023-04-24T06:35:46.462Z,3.42
2023-04-24T06:38:13.735Z,2.60
2023-04-24T06:40:41.274Z,3.13
2023-04-24T06:43:08.484Z,2.50
2023-04-24T06:45:35.818Z,2.83
2023-04-24T06:48:03.201Z,2.97
2023-04-24T06:50:30.467Z,3.00
2023-04-24T06:52:57.807Z,2.60
2023-04-24T06:55:25.062Z,3.40
2023-04-24T06:57:52.281Z,3.03
2023-04-24T07:00:19.865Z,3.63
2023-04-24T07:02:47.097Z,3.45
2023-04-24T07:05:16.677Z,3.40
2023-04-24T07:07:44.204Z,3.30
2023-04-24T07:10:11.677Z,5.43
2023-04-24T07:12:39.021Z,3.30
2023-04-24T07:15:08.933Z,3.40
2023-04-24T07:17:36.780Z,3.00
2023-04-24T07:20:05.260Z,3.47
2023-04-24T07:22:32.719Z,3.35
2023-04-24T07:24:59.956Z,3.17
2023-04-24T07:27:27.327Z,3.15
2023-04-24T07:29:54.846Z,3.78
2023-04-24T07:32:22.168Z,3.72
2023-04-24T07:34:49.464Z,3.22
2023-04-24T07:37:16.822Z,3.70
2023-04-24T07:39:44.338Z,3.00
2023-04-24T07:42:11.866Z,2.88
2023-04-24T07:44:39.040Z,3.30
2023-04-24T07:47:06.426Z,3.05
2023-04-24T07:49:35.935Z,2.90
2023-04-24T07:52:03.661Z,2.65
2023-04-24T07:54:31.222Z,2.75
2023-04-24T07:56:58.443Z,2.90
2023-04-24T07:59:25.918Z,2.78
2023-04-24T08:01:53.171Z,2.42
2023-04-24T08:04:20.538Z,3.40
2023-04-24T08:06:49.508Z,3.15
2023-04-24T08:09:16.752Z,2.97
2023-04-24T08:11:44.775Z,3.08
2023-04-24T08:14:13.614Z,2.75
2023-04-24T08:16:41.056Z,3.10
2023-04-24T08:19:08.506Z,2.75
2023-04-24T08:21:35.736Z,3.10
2023-04-24T08:24:06.196Z,2.60
2023-04-24T08:29:00.659Z,3.10
2023-04-24T08:31:28.082Z,2.63
2023-04-24T08:33:55.404Z,3.20
2023-04-24T08:36:26.491Z,2.92
2023-04-24T08:39:00.564Z,3.10
2023-04-24T08:41:28.909Z,2.63
2023-04-24T08:43:59.146Z,3.20
2023-04-24T08:46:27.160Z,2.30
2023-04-24T08:48:54.639Z,2.75
2023-04-24T08:51:22.518Z,2.80
2023-04-24T08:53:50.515Z,2.58
2023-04-24T08:56:18.354Z,3.08
2023-04-24T08:58:46.397Z,3.15
2023-04-24T09:01:14.464Z,3.80
2023-04-24T09:03:42.269Z,3.45
2023-04-24T09:06:11.674Z,3.40
2023-04-24T09:08:40.933Z,3.10
2023-04-24T09:11:09.889Z,3.75
2023-04-24T09:13:37.701Z,3.35
2023-04-24T09:16:05.532Z,3.55
2023-04-24T09:18:33.058Z,3.72
2023-04-24T09:21:10.290Z,3.40
2023-04-24T09:23:37.608Z,2.88
2023-04-24T09:26:06.402Z,3.70
2023-04-24T09:28:40.039Z,3.50
2023-04-24T09:31:16.814Z,3.22
2023-04-24T09:34:06.442Z,3.22
2023-04-24T09:36:43.685Z,3.60
2023-04-24T09:39:16.623Z,3.10
2023-04-24T09:41:59.744Z,4.05
2023-04-24T09:44:29.174Z,3.67
2023-04-24T09:47:01.760Z,3.43
2023-04-24T09:49:31.713Z,3.38
2023-04-24T09:52:11.078Z,3.45
2023-04-24T09:54:39.420Z,3.83
2023-04-24T09:57:08.979Z,4.25
2023-04-24T09:59:40.272Z,3.43
2023-04-24T10:02:22.086Z,3.35
2023-04-24T10:05:01.093Z,4.57
2023-04-24T10:07:28.846Z,4.55
2023-04-24T10:09:56.768Z,4.43
2023-04-24T10:12:26.071Z,3.70
2023-04-24T10:14:54.322Z,4.47
2023-04-24T10:17:23.106Z,4.45
2023-04-24T10:19:51.386Z,4.75
2023-04-24T10:22:19.384Z,3.95
2023-04-24T10:24:48.495Z,5.13
2023-04-24T10:27:16.658Z,3.78
2023-04-24T10:29:46.086Z,3.85
2023-04-24T10:32:13.622Z,4.37
2023-04-24T10:34:41.113Z,4.53
2023-04-24T10:37:08.456Z,3.63
2023-04-24T10:39:36.489Z,3.38
2023-04-24T10:42:14.653Z,3.38
2023-04-24T10:44:42.193Z,3.60
2023-04-24T10:47:15.748Z,3.83
2023-04-24T10:49:43.592Z,3.67
2023-04-24T10:52:10.972Z,3.72
2023-04-24T10:54:45.727Z,3.40
2023-04-24T10:57:23.377Z,3.60
2023-04-24T11:00:30.441Z,3.75
2023-04-24T11:02:59.017Z,3.47
2023-04-24T11:06:09.746Z,4.28
2023-04-24T11:11:16.278Z,5.10
2023-04-24T11:13:55.801Z,3.87
2023-04-24T11:16:36.535Z,5.63
2023-04-24T11:19:09.239Z,5.35
2023-04-24T11:22:04.109Z,5.68
2023-04-24T11:24:38.181Z,5.32
2023-04-24T11:27:19.127Z,5.38
2023-04-24T11:30:01.233Z,5.30
2023-04-24T11:32:38.674Z,3.35
2023-04-24T11:35:17.801Z,3.38
2023-04-24T11:38:18.799Z,3.20
2023-04-24T11:40:40.550Z,2.92
2023-04-24T11:43:09.729Z,3.30
2023-04-24T11:45:37.162Z,2.88
2023-04-24T11:48:05.208Z,2.13
2023-04-24T11:50:32.665Z,3.45
2023-04-24T11:53:01.548Z,3.10
2023-04-24T11:55:30.484Z,3.35
2023-04-24T11:58:00.550Z,4.15
2023-04-24T12:00:31.951Z,3.70
2023-04-24T12:03:11.844Z,4.07
2023-04-24T12:05:40.772Z,3.65
2023-04-24T12:08:08.544Z,3.45
2023-04-24T12:10:37.047Z,3.67
2023-04-24T12:13:04.465Z,3.70
2023-04-24T12:15:32.287Z,3.78
2023-04-24T12:18:00.427Z,4.03
2023-04-24T12:20:32.259Z,4.20
2023-04-24T12:23:01.889Z,3.78
2023-04-24T12:25:33.322Z,3.88
2023-04-24T12:28:06.948Z,4.28
2023-04-24T12:30:49.670Z,3.90
2023-04-24T12:33:22.228Z,3.75
2023-04-24T12:35:54.491Z,4.45
2023-04-24T12:38:26.796Z,3.67
2023-04-24T12:41:11.313Z,4.40
2023-04-24T12:43:38.928Z,3.80
2023-04-24T12:46:06.968Z,3.33
2023-04-24T12:48:34.550Z,3.90
2023-04-24T12:51:02.724Z,4.13
2023-04-24T12:53:32.245Z,4.35
2023-04-24T12:55:59.824Z,3.93
2023-04-24T12:58:27.191Z,4.03
2023-04-24T13:00:55.330Z,4.82
2023-04-24T13:03:23.750Z,4.72
2023-04-24T13:05:51.246Z,5.43
2023-04-24T13:08:18.536Z,5.85
2023-04-24T13:10:46.542Z,6.40
2023-04-24T13:13:14.103Z,6.93
2023-04-24T13:15:41.456Z,7.90
2023-04-24T13:18:08.938Z,8.25
2023-04-24T13:20:36.680Z,8.07
2023-04-24T13:23:03.948Z,7.60
2023-04-24T13:25:37.245Z,8.80
2023-04-24T13:28:04.572Z,8.05
2023-04-24T13:30:32.506Z,7.45
2023-04-24T13:32:59.877Z,7.75
2023-04-24T13:35:27.288Z,5.97
2023-04-24T13:37:54.503Z,6.28
2023-04-24T13:40:21.898Z,6.63
2023-04-24T13:42:49.323Z,5.75
2023-04-24T13:45:24.812Z,6.10
2023-04-24T13:47:55.001Z,5.22
2023-04-24T13:50:22.980Z,5.77
2023-04-24T13:52:50.435Z,5.22
2023-04-24T13:55:17.950Z,6.18
2023-04-24T13:57:45.093Z,5.65
2023-04-24T14:00:14.398Z,13.90
2023-04-24T14:02:41.851Z,5.40
2023-04-24T14:05:12.097Z,5.15
2023-04-24T14:07:39.569Z,5.75
2023-04-24T14:10:08.343Z,5.15
2023-04-24T14:12:35.750Z,5.50
2023-04-24T14:15:05.587Z,6.15
2023-04-24T14:17:33.109Z,6.63
2023-04-24T14:20:01.627Z,6.47
2023-04-24T14:22:28.909Z,5.22
2023-04-24T14:24:56.105Z,5.57
2023-04-24T14:27:23.530Z,6.20
2023-04-24T14:29:50.905Z,6.47
2023-04-24T14:32:18.544Z,5.30
2023-04-24T14:34:46.076Z,5.10
2023-04-24T14:37:13.616Z,5.68
2023-04-24T14:39:41.167Z,7.80
2023-04-24T14:42:08.438Z,4.55
2023-04-24T14:44:35.966Z,4.82
2023-04-24T14:47:03.343Z,5.20
2023-04-24T14:49:30.834Z,5.22
2023-04-24T14:51:57.970Z,4.32
2023-04-24T14:54:26.179Z,4.63
2023-04-24T14:56:53.543Z,5.30
2023-04-24T14:59:21.053Z,5.20
2023-04-24T15:01:48.320Z,4.72
2023-04-24T15:04:15.981Z,9.15
2023-04-24T15:06:43.638Z,6.72
2023-04-24T15:09:10.973Z,5.20
2023-04-24T15:11:38.428Z,4.55
2023-04-24T15:14:05.732Z,4.80
2023-04-24T15:16:33.522Z,4.40
2023-04-24T15:19:00.876Z,4.32
2023-04-24T15:21:28.199Z,3.83
2023-04-24T15:23:56.216Z,8.38
2023-04-24T15:26:25.478Z,5.47
2023-04-24T15:28:53.278Z,4.53
2023-04-24T15:31:21.439Z,4.78
2023-04-24T15:33:50.713Z,5.18
2023-04-24T15:36:18.743Z,4.93
2023-04-24T15:38:46.434Z,6.10
2023-04-24T15:41:13.658Z,5.10
2023-04-24T15:43:42.281Z,5.20
2023-04-24T15:46:10.866Z,5.78
2023-04-24T15:48:39.961Z,5.40
2023-04-24T15:51:07.186Z,5.35
2023-04-24T15:53:34.712Z,6.15
2023-04-24T15:56:01.976Z,5.30
2023-04-24T15:58:29.554Z,5.47
2023-04-24T16:00:57.061Z,5.55
2023-04-24T16:03:24.956Z,5.45
2023-04-24T16:05:53.634Z,5.65
2023-04-24T16:08:22.472Z,5.32
2023-04-24T16:10:50.295Z,5.97
2023-04-24T16:13:18.852Z,6.43
2023-04-24T16:15:46.616Z,6.60
2023-04-24T16:18:14.057Z,7.03
2023-04-24T16:20:41.337Z,7.45
2023-04-24T16:23:08.659Z,6.25
2023-04-24T16:25:36.238Z,7.03
2023-04-24T16:28:03.877Z,6.40
2023-04-24T16:30:31.845Z,7.57
2023-04-24T16:32:59.405Z,7.22
2023-04-24T16:35:26.914Z,8.52
2023-04-24T16:37:54.077Z,7.05
2023-04-24T16:40:21.445Z,7.53
2023-04-24T16:42:49.002Z,7.10
2023-04-24T16:45:16.332Z,7.18
2023-04-24T16:47:43.668Z,7.40
2023-04-24T16:50:11.598Z,6.90
2023-04-24T16:52:39.758Z,7.68
2023-04-24T16:55:07.754Z,7.15
2023-04-24T16:57:34.964Z,6.80
2023-04-24T17:00:02.439Z,6.80
2023-04-24T17:02:30.005Z,6.85
2023-04-24T17:04:57.567Z,6.85
2023-04-24T17:07:25.912Z,7.32
2023-04-24T17:09:53.421Z,6.43
2023-04-24T17:12:20.728Z,7.05
2023-04-24T17:14:47.969Z,7.82
2023-04-24T17:17:16.399Z,7.03
2023-04-24T17:19:43.855Z,8.55
2023-04-24T17:22:11.100Z,9.32
2023-04-24T17:24:39.130Z,9.05
2023-04-24T17:27:14.663Z,10.50
2023-04-24T17:29:42.836Z,11.10
2023-04-24T17:32:10.433Z,9.98
2023-04-24T17:34:37.871Z,10.43
2023-04-24T17:37:05.441Z,9.98
2023-04-24T17:39:32.710Z,11.88
2023-04-24T17:42:00.176Z,10.82
2023-04-24T17:44:27.671Z,11.27
2023-04-24T17:46:55.001Z,10.90
2023-04-24T17:49:22.292Z,13.07
2023-04-24T17:51:50.324Z,10.65
2023-04-24T17:54:18.381Z,11.00
2023-04-24T17:56:46.467Z,11.85
2023-04-24T17:59:13.988Z,11.88
2023-04-24T18:01:41.272Z,13.13
2023-04-24T18:04:09.306Z,14.35
2023-04-24T18:06:37.814Z,12.73
2023-04-24T18:09:05.436Z,13.65
2023-04-24T18:11:33.146Z,13.85
2023-04-24T18:14:00.621Z,14.55
2023-04-24T18:16:27.876Z,15.40
2023-04-24T18:18:55.488Z,14.98
2023-04-24T18:21:23.886Z,15.38
2023-04-24T18:23:51.393Z,14.82
2023-04-24T18:26:18.797Z,17.25
2023-04-24T18:28:46.343Z,16.10
2023-04-24T18:31:13.967Z,16.27
2023-04-24T18:33:41.450Z,16.55
2023-04-24T18:36:09.015Z,17.02
2023-04-24T18:38:37.009Z,18.80
2023-04-24T18:41:04.839Z,16.58
2023-04-24T18:43:32.258Z,16.88
2023-04-24T18:45:59.464Z,16.20
2023-04-24T18:48:29.799Z,16.63
2023-04-24T18:50:57.733Z,15.00
2023-04-24T18:53:25.089Z,15.90
2023-04-24T18:55:53.153Z,15.30
2023-04-24T18:58:20.432Z,16.77
2023-04-24T19:00:48.042Z,16.65
2023-04-24T19:03:15.708Z,17.10
2023-04-24T19:05:43.192Z,17.80
2023-04-24T19:08:10.702Z,18.52
2023-04-24T19:10:38.096Z,19.38
2023-04-24T19:13:05.908Z,20.25
2023-04-24T19:15:35.021Z,20.40
2023-04-24T19:18:03.654Z,17.80
2023-04-24T19:20:31.055Z,17.45
2023-04-24T19:22:58.545Z,19.60
2023-04-24T19:25:26.374Z,17.05
2023-04-24T19:27:53.868Z,17.85
2023-04-24T19:30:21.404Z,17.90
2023-04-24T19:32:48.725Z,17.63
2023-04-24T19:35:16.229Z,19.27
2023-04-24T19:37:43.701Z,17.85
2023-04-24T19:40:12.921Z,18.17
2023-04-24T19:42:44.328Z,18.77
2023-04-24T19:45:15.318Z,18.70
2023-04-24T19:50:10.364Z,18.85
2023-04-24T19:52:37.765Z,20.13
2023-04-24T19:55:05.715Z,18.27
2023-04-24T19:57:34.810Z,18.90
2023-04-24T20:00:02.042Z,18.77
2023-04-24T20:02:32.364Z,19.02
2023-04-24T20:04:59.957Z,21.95
2023-04-24T20:07:27.386Z,22.77
2023-04-24T20:09:54.652Z,21.73
2023-04-24T20:12:22.183Z,21.83
2023-04-24T20:14:49.732Z,22.60
2023-04-24T20:17:18.172Z,21.48
2023-04-24T20:19:46.469Z,21.48
2023-04-24T20:22:14.144Z,23.05
2023-04-24T20:24:41.721Z,21.50
2023-04-24T20:27:09.167Z,20.40
2023-04-24T20:29:36.475Z,20.58
2023-04-24T20:32:03.890Z,19.98
2023-04-24T20:34:31.645Z,19.23
2023-04-24T20:36:59.273Z,19.88
2023-04-24T20:39:26.833Z,20.95
2023-04-24T20:41:54.075Z,20.13
2023-04-24T20:44:22.017Z,19.48
2023-04-24T20:46:49.330Z,18.25
2023-04-24T20:49:16.985Z,17.83
2023-04-24T20:51:44.222Z,17.65
2023-04-24T20:54:11.514Z,20.08
2023-04-24T20:56:38.803Z,19.13
2023-04-24T20:59:06.168Z,18.33
2023-04-24T21:01:33.636Z,18.48
2023-04-24T21:04:01.010Z,18.52
2023-04-24T21:06:28.253Z,17.27
2023-04-24T21:08:55.556Z,17.30
2023-04-24T21:11:22.818Z,18.23
2023-04-24T21:13:50.433Z,18.00
2023-04-24T21:16:18.224Z,17.23
2023-04-24T21:18:45.755Z,17.52
2023-04-24T21:21:13.236Z,16.95
2023-04-24T21:23:41.031Z,18.10
2023-04-24T21:26:08.749Z,17.20
2023-04-24T21:28:37.160Z,17.10
2023-04-24T21:31:04.632Z,17.50
2023-04-24T21:33:31.880Z,17.38
2023-04-24T21:35:59.221Z,17.05
2023-04-24T21:38:26.452Z,16.33
2023-04-24T21:40:53.712Z,15.68
2023-04-24T21:43:28.057Z,16.90
2023-04-24T21:46:04.932Z,17.02
2023-04-24T21:48:32.226Z,17.42
2023-04-24T21:50:59.634Z,16.05
2023-04-24T21:53:26.833Z,17.85
2023-04-24T21:55:54.139Z,15.88
2023-04-24T21:58:21.361Z,15.45
2023-04-24T22:00:48.692Z,16.83
2023-04-24T22:03:16.972Z,15.82
2023-04-24T22:05:44.384Z,16.27
2023-04-24T22:08:11.688Z,16.88
2023-04-24T22:10:39.024Z,17.35
2023-04-24T22:13:06.387Z,17.33
2023-04-24T22:15:33.616Z,17.67
2023-04-24T22:18:01.414Z,17.60
2023-04-24T22:20:29.238Z,16.98
2023-04-24T22:22:56.392Z,15.90
2023-04-24T22:25:23.700Z,13.35
2023-04-24T22:27:51.050Z,14.27
2023-04-24T22:30:18.678Z,12.88
2023-04-24T22:32:46.121Z,11.50
2023-04-24T22:35:13.390Z,9.13
2023-04-24T22:37:40.728Z,7.07
2023-04-24T22:40:08.736Z,6.00
2023-04-24T22:42:36.295Z,4.75
2023-04-24T22:45:04.630Z,4.80
2023-04-24T22:47:32.065Z,4.80
2023-04-24T22:49:59.455Z,5.15
2023-04-24T22:52:28.966Z,4.63
2023-04-24T22:54:56.294Z,4.43
2023-04-24T22:57:23.738Z,3.65
2023-04-24T22:59:50.989Z,4.03
2023-04-24T23:02:18.383Z,3.33
2023-04-24T23:04:45.696Z,4.10
2023-04-24T23:07:13.014Z,3.97
2023-04-24T23:09:40.407Z,3.35
2023-04-24T23:12:07.807Z,3.78
2023-04-24T23:14:35.154Z,4.38
2023-04-24T23:17:02.579Z,4.03
2023-04-24T23:19:29.998Z,4.47
2023-04-24T23:21:57.332Z,3.67
2023-04-24T23:24:24.661Z,4.78
2023-04-24T23:26:52.092Z,4.18
2023-04-24T23:29:19.395Z,4.28
2023-04-24T23:31:46.774Z,5.07
2023-04-24T23:34:14.345Z,6.18
2023-04-24T23:36:41.706Z,5.20
2023-04-24T23:39:08.987Z,5.05
2023-04-24T23:41:37.677Z,5.57
2023-04-24T23:44:06.063Z,6.53
2023-04-24T23:46:33.386Z,6.13
2023-04-24T23:49:00.581Z,5.90
2023-04-24T23:51:28.091Z,6.13
2023-04-24T23:53:55.512Z,7.00
2023-04-24T23:56:24.476Z,6.55
2023-04-24T23:58:51.782Z,6.15
